createdAt,value
2023-05-23T00:02:15.684Z,44.43
2023-05-23T00:04:44.329Z,44.00
2023-05-23T00:07:13.694Z,44.53
2023-05-23T00:09:41.599Z,44.33
2023-05-23T00:12:09.846Z,45.47
2023-05-23T00:14:40.192Z,43.33
2023-05-23T00:17:10.648Z,43.00
2023-05-23T00:19:38.844Z,44.23
2023-05-23T00:22:06.816Z,46.20
2023-05-23T00:24:36.109Z,44.40
2023-05-23T00:27:04.137Z,44.43
2023-05-23T00:29:32.088Z,44.40
2023-05-23T00:32:00.021Z,43.60
2023-05-23T00:34:28.002Z,44.20
2023-05-23T00:36:55.949Z,46.90
2023-05-23T00:39:23.893Z,45.17
2023-05-23T00:41:53.490Z,45.57
2023-05-23T00:44:22.573Z,46.10
2023-05-23T00:46:54.114Z,43.27
2023-05-23T00:49:22.921Z,46.23
2023-05-23T00:51:51.854Z,45.17
2023-05-23T00:54:24.649Z,46.87
2023-05-23T00:56:54.416Z,44.90
2023-05-23T00:59:24.234Z,46.40
2023-05-23T01:01:52.914Z,43.87
2023-05-23T01:04:21.452Z,43.70
2023-05-23T01:06:49.559Z,46.00
2023-05-23T01:09:18.851Z,46.20
2023-05-23T01:11:53.278Z,45.53
2023-05-23T01:14:27.478Z,46.53
2023-05-23T01:17:01.166Z,43.90
2023-05-23T01:19:55.267Z,44.33
2023-05-23T01:22:32.923Z,44.13
2023-05-23T01:25:09.268Z,45.53
2023-05-23T01:27:50.087Z,43.40
2023-05-23T01:30:21.651Z,47.77
2023-05-23T01:32:51.791Z,45.00
2023-05-23T01:35:26.756Z,42.13
2023-05-23T01:37:54.808Z,46.70
2023-05-23T01:40:23.252Z,45.00
2023-05-23T01:42:53.001Z,44.80
2023-05-23T01:45:21.952Z,45.87
2023-05-23T01:47:51.946Z,44.70
2023-05-23T01:50:20.073Z,45.53
2023-05-23T01:52:48.626Z,43.90
2023-05-23T01:55:22.812Z,45.70
2023-05-23T01:57:54.614Z,44.60
2023-05-23T02:00:23.217Z,44.83
2023-05-23T02:02:51.282Z,42.23
2023-05-23T02:05:19.322Z,44.27
2023-05-23T02:07:47.261Z,44.93
2023-05-23T02:10:15.237Z,45.20
2023-05-23T02:12:43.173Z,44.57
2023-05-23T02:15:12.713Z,45.83
2023-05-23T02:17:41.362Z,41.67
2023-05-23T02:20:11.093Z,42.70
2023-05-23T02:22:40.173Z,43.40
2023-05-23T02:25:09.172Z,42.87
2023-05-23T02:27:37.087Z,45.60
2023-05-23T02:30:05.528Z,47.27
2023-05-23T02:32:35.057Z,43.50
2023-05-23T02:35:03.020Z,42.53
2023-05-23T02:37:30.922Z,43.87
2023-05-23T02:39:58.859Z,43.97
2023-05-23T02:42:26.834Z,43.33
2023-05-23T02:44:54.803Z,42.63
2023-05-23T02:47:22.792Z,43.90
2023-05-23T02:49:52.145Z,42.40
2023-05-23T02:52:20.094Z,42.93
2023-05-23T02:54:48.031Z,42.53
2023-05-23T02:57:15.988Z,44.13
2023-05-23T02:59:44.006Z,42.17
2023-05-23T03:02:12.024Z,43.63
2023-05-23T03:04:40.141Z,44.97
2023-05-23T03:07:17.227Z,43.67
2023-05-23T03:09:52.365Z,41.17
2023-05-23T03:12:20.214Z,45.03
2023-05-23T03:14:48.171Z,42.43
2023-05-23T03:17:16.099Z,45.40
2023-05-23T03:19:43.987Z,43.40
2023-05-23T03:22:13.263Z,42.20
2023-05-23T03:24:41.129Z,42.60
2023-05-23T03:27:09.026Z,42.87
2023-05-23T03:29:37.598Z,42.57
2023-05-23T03:32:06.539Z,43.27
2023-05-23T03:34:36.448Z,42.37
2023-05-23T03:37:04.488Z,41.03
2023-05-23T03:39:33.798Z,43.10
2023-05-23T03:42:01.723Z,41.70
2023-05-23T03:44:29.612Z,41.73
2023-05-23T03:46:57.520Z,41.60
2023-05-23T03:49:25.448Z,43.60
2023-05-23T03:51:53.363Z,41.57
2023-05-23T03:54:21.275Z,41.27
2023-05-23T03:56:50.547Z,42.90
2023-05-23T03:59:19.026Z,41.63
2023-05-23T04:01:47.029Z,43.30
2023-05-23T04:04:16.406Z,40.37
2023-05-23T04:06:44.402Z,43.87
2023-05-23T04:09:12.314Z,41.70
2023-05-23T04:11:40.229Z,42.40
2023-05-23T04:14:09.469Z,41.50
2023-05-23T04:16:41.526Z,42.93
2023-05-23T04:19:09.702Z,41.73
2023-05-23T04:21:37.671Z,41.13
2023-05-23T04:24:06.045Z,42.67
2023-05-23T04:26:36.248Z,41.67
2023-05-23T04:29:05.911Z,40.83
2023-05-23T04:31:35.495Z,41.87
2023-05-23T04:34:03.818Z,43.07
2023-05-23T04:36:31.772Z,40.57
2023-05-23T04:38:59.755Z,41.80
2023-05-23T04:41:28.211Z,41.73
2023-05-23T04:43:58.407Z,42.23
2023-05-23T04:46:26.791Z,42.50
2023-05-23T04:48:56.438Z,44.10
2023-05-23T04:51:25.080Z,44.23
2023-05-23T04:53:53.048Z,41.13
2023-05-23T04:56:22.242Z,42.60
2023-05-23T04:58:50.222Z,40.47
2023-05-23T05:01:18.253Z,43.30
2023-05-23T05:03:47.411Z,45.00
2023-05-23T05:06:17.592Z,44.00
2023-05-23T05:08:45.588Z,43.63
2023-05-23T05:11:13.575Z,43.67
2023-05-23T05:13:41.540Z,59.67
2023-05-23T05:16:09.625Z,59.53
2023-05-23T05:18:37.657Z,59.07
2023-05-23T05:21:06.469Z,58.00
2023-05-23T05:23:36.950Z,56.07
2023-05-23T05:26:05.628Z,54.40
2023-05-23T05:28:33.597Z,64.50
2023-05-23T05:31:05.083Z,58.40
2023-05-23T05:33:36.115Z,59.23
2023-05-23T05:36:04.391Z,43.00
2023-05-23T05:38:32.426Z,41.47
2023-05-23T05:41:01.765Z,43.57
2023-05-23T05:43:29.828Z,59.23
2023-05-23T05:45:57.809Z,48.20
2023-05-23T05:48:25.870Z,53.47
2023-05-23T05:50:53.818Z,52.20
2023-05-23T05:53:21.728Z,53.47
2023-05-23T05:55:49.791Z,53.57
2023-05-23T05:58:19.178Z,59.67
2023-05-23T06:00:47.571Z,45.00
2023-05-23T06:03:15.734Z,46.30
2023-05-23T06:05:43.889Z,58.30
2023-05-23T06:08:11.914Z,63.50
2023-05-23T06:10:40.570Z,49.17
2023-05-23T06:13:08.764Z,43.67
2023-05-23T06:15:38.345Z,42.87
2023-05-23T06:18:06.363Z,47.67
2023-05-23T06:20:34.371Z,43.87
2023-05-23T06:23:05.460Z,45.57
2023-05-23T06:25:33.526Z,46.13
2023-05-23T06:28:01.518Z,46.03
2023-05-23T06:30:30.708Z,42.53
2023-05-23T06:33:00.250Z,44.33
2023-05-23T06:35:28.259Z,45.07
2023-05-23T06:37:56.279Z,43.63
2023-05-23T06:40:24.303Z,44.60
2023-05-23T06:42:52.283Z,44.90
2023-05-23T06:45:20.260Z,44.97
2023-05-23T06:47:49.239Z,47.30
2023-05-23T06:50:19.948Z,45.23
2023-05-23T06:52:48.051Z,44.53
2023-05-23T06:55:19.094Z,45.03
2023-05-23T06:57:47.255Z,46.13
2023-05-23T07:00:15.937Z,44.17
2023-05-23T07:02:45.532Z,44.20
2023-05-23T07:05:13.616Z,45.10
2023-05-23T07:07:43.161Z,56.03
2023-05-23T07:10:11.906Z,57.57
2023-05-23T07:12:39.837Z,56.13
2023-05-23T07:15:08.919Z,70.57
2023-05-23T07:17:36.910Z,62.00
2023-05-23T07:20:09.519Z,46.33
2023-05-23T07:22:37.548Z,47.80
2023-05-23T07:25:08.192Z,46.53
2023-05-23T07:27:36.249Z,46.07
2023-05-23T07:30:05.615Z,48.90
2023-05-23T07:32:33.594Z,43.20
2023-05-23T07:35:01.565Z,47.00
2023-05-23T07:37:29.729Z,48.77
2023-05-23T07:39:57.691Z,47.43
2023-05-23T07:42:27.017Z,49.73
2023-05-23T07:44:54.928Z,55.83
2023-05-23T07:47:24.217Z,57.63
2023-05-23T07:49:53.108Z,54.40
2023-05-23T07:52:21.198Z,56.07
2023-05-23T07:54:49.141Z,56.73
2023-05-23T07:57:17.069Z,40.33
2023-05-23T07:59:46.403Z,40.83
2023-05-23T08:02:14.444Z,39.33
2023-05-23T08:04:42.435Z,41.07
2023-05-23T08:07:11.453Z,39.50
2023-05-23T08:09:40.277Z,40.57
2023-05-23T08:12:08.391Z,40.37
2023-05-23T08:14:50.021Z,40.73
2023-05-23T08:17:20.598Z,39.43
2023-05-23T08:19:48.654Z,40.03
2023-05-23T08:22:16.667Z,40.00
2023-05-23T08:24:46.389Z,39.93
2023-05-23T08:27:14.484Z,41.10
2023-05-23T08:29:42.819Z,40.37
2023-05-23T08:32:10.998Z,40.97
2023-05-23T08:34:41.740Z,40.37
2023-05-23T08:37:09.700Z,41.23
2023-05-23T08:39:37.655Z,41.10
2023-05-23T08:42:06.236Z,40.80
2023-05-23T08:44:34.299Z,41.63
2023-05-23T08:47:06.431Z,43.23
2023-05-23T08:49:34.525Z,43.97
2023-05-23T08:52:04.970Z,42.33
2023-05-23T08:54:33.964Z,44.00
2023-05-23T08:57:02.854Z,46.13
2023-05-23T08:59:33.005Z,42.90
2023-05-23T09:02:03.308Z,42.77
2023-05-23T09:04:32.360Z,43.77
2023-05-23T09:07:00.672Z,43.97
2023-05-23T09:09:30.343Z,45.43
2023-05-23T09:12:00.988Z,42.33
2023-05-23T09:14:30.379Z,43.93
2023-05-23T09:17:04.569Z,44.17
2023-05-23T09:19:33.359Z,42.20
2023-05-23T09:22:03.679Z,43.83
2023-05-23T09:24:37.286Z,43.23
2023-05-23T09:27:07.477Z,43.63
2023-05-23T09:29:38.915Z,43.07
2023-05-23T09:32:12.629Z,42.30
2023-05-23T09:34:42.907Z,43.30
2023-05-23T09:37:18.273Z,42.97
2023-05-23T09:39:49.534Z,42.80
2023-05-23T09:42:22.883Z,42.93
2023-05-23T09:44:51.056Z,43.50
2023-05-23T09:47:19.570Z,43.23
2023-05-23T09:49:48.088Z,42.93
2023-05-23T09:52:16.091Z,43.13
2023-05-23T09:54:44.650Z,42.43
2023-05-23T09:57:16.048Z,43.33
2023-05-23T09:59:50.839Z,43.53
2023-05-23T10:02:37.065Z,44.37
2023-05-23T10:05:08.000Z,43.53
2023-05-23T10:07:36.964Z,43.60
2023-05-23T10:10:07.174Z,42.90
2023-05-23T10:12:45.505Z,43.17
2023-05-23T10:15:17.404Z,43.33
2023-05-23T10:18:04.654Z,42.67
2023-05-23T10:20:33.962Z,43.07
2023-05-23T10:23:02.744Z,43.20
2023-05-23T10:25:30.970Z,46.53
2023-05-23T10:28:03.951Z,53.33
2023-05-23T10:30:32.908Z,50.23
2023-05-23T10:33:01.727Z,53.90
2023-05-23T10:35:42.277Z,54.10
2023-05-23T10:38:20.425Z,61.73
2023-05-23T10:40:56.247Z,43.73
2023-05-23T10:43:32.172Z,44.13
2023-05-23T10:46:00.501Z,44.30
2023-05-23T10:48:35.346Z,44.03
2023-05-23T10:51:08.147Z,44.27
2023-05-23T10:53:37.776Z,44.27
2023-05-23T10:56:09.954Z,43.73
2023-05-23T10:58:40.792Z,43.70
2023-05-23T11:01:10.064Z,44.93
2023-05-23T11:03:52.953Z,44.70
2023-05-23T11:06:33.924Z,45.10
2023-05-23T11:09:07.211Z,45.90
2023-05-23T11:12:02.699Z,45.20
2023-05-23T11:14:54.583Z,46.13
2023-05-23T11:17:33.669Z,45.57
2023-05-23T11:20:06.338Z,45.23
2023-05-23T11:22:34.742Z,44.97
2023-05-23T11:25:07.318Z,45.73
2023-05-23T11:27:37.779Z,45.77
2023-05-23T11:30:09.523Z,44.70
2023-05-23T11:32:38.292Z,44.90
2023-05-23T11:35:08.196Z,44.63
2023-05-23T11:37:36.876Z,45.63
2023-05-23T11:40:26.776Z,44.93
2023-05-23T11:42:55.075Z,44.03
2023-05-23T11:45:24.718Z,44.13
2023-05-23T11:47:52.665Z,44.33
2023-05-23T11:50:21.474Z,44.73
2023-05-23T11:52:52.326Z,44.47
2023-05-23T11:55:21.383Z,44.60
2023-05-23T11:57:49.655Z,44.00
2023-05-23T12:00:18.842Z,44.50
2023-05-23T12:02:49.001Z,44.50
2023-05-23T12:05:17.482Z,44.50
2023-05-23T12:07:46.944Z,46.33
2023-05-23T12:10:16.295Z,44.90
2023-05-23T12:12:45.342Z,45.50
2023-05-23T12:15:13.981Z,45.03
2023-05-23T12:17:47.332Z,45.43
2023-05-23T12:20:16.123Z,44.90
2023-05-23T12:22:44.088Z,45.47
2023-05-23T12:25:12.223Z,44.47
2023-05-23T12:27:43.902Z,44.80
2023-05-23T12:30:16.051Z,44.97
2023-05-23T12:32:45.952Z,45.67
2023-05-23T12:35:16.470Z,45.33
2023-05-23T12:37:46.857Z,45.73
2023-05-23T12:40:16.158Z,45.07
2023-05-23T12:43:02.156Z,45.10
2023-05-23T12:45:33.503Z,45.37
2023-05-23T12:48:01.921Z,45.83
2023-05-23T12:50:31.274Z,44.97
2023-05-23T12:52:59.440Z,45.63
2023-05-23T12:55:27.396Z,44.93
2023-05-23T12:57:56.249Z,46.03
2023-05-23T13:00:24.281Z,44.80
2023-05-23T13:02:52.467Z,44.53
2023-05-23T13:05:21.057Z,45.00
2023-05-23T13:07:50.582Z,45.43
2023-05-23T13:10:19.169Z,45.00
2023-05-23T13:12:47.145Z,45.67
2023-05-23T13:15:15.152Z,45.30
2023-05-23T13:17:46.187Z,45.17
2023-05-23T13:20:18.174Z,45.17
2023-05-23T13:22:46.112Z,44.97
2023-05-23T13:25:15.698Z,45.23
2023-05-23T13:27:43.704Z,45.37
2023-05-23T13:30:12.229Z,46.93
2023-05-23T13:32:40.228Z,58.13
2023-05-23T13:35:08.768Z,56.63
2023-05-23T13:37:36.726Z,76.67
2023-05-23T13:40:06.072Z,74.80
2023-05-23T13:42:36.231Z,51.47
2023-05-23T13:45:04.907Z,45.17
2023-05-23T13:47:32.916Z,44.37
2023-05-23T13:50:01.452Z,45.40
2023-05-23T13:52:29.402Z,45.70
2023-05-23T13:54:57.433Z,46.63
2023-05-23T13:57:25.438Z,46.37
2023-05-23T13:59:54.836Z,45.83
2023-05-23T14:02:23.007Z,45.50
2023-05-23T14:04:51.060Z,44.77
2023-05-23T14:07:19.137Z,45.07
2023-05-23T14:09:47.113Z,46.10
2023-05-23T14:12:15.056Z,46.13
2023-05-23T14:14:43.045Z,46.30
2023-05-23T14:17:17.162Z,46.30
2023-05-23T14:19:45.620Z,58.03
2023-05-23T14:22:13.778Z,59.90
2023-05-23T14:24:41.729Z,65.00
2023-05-23T14:27:11.334Z,50.53
2023-05-23T14:29:39.772Z,51.03
2023-05-23T14:32:08.062Z,49.20
2023-05-23T14:34:37.439Z,51.33
2023-05-23T14:37:05.511Z,49.67
2023-05-23T14:39:33.467Z,48.80
2023-05-23T14:42:02.185Z,46.10
2023-05-23T14:44:30.395Z,45.13
2023-05-23T14:46:58.330Z,44.60
2023-05-23T14:49:26.303Z,45.27
2023-05-23T14:51:55.932Z,44.50
2023-05-23T14:54:23.857Z,44.73
2023-05-23T14:56:53.247Z,44.37
2023-05-23T14:59:21.761Z,45.00
2023-05-23T15:01:50.147Z,45.13
2023-05-23T15:04:18.534Z,45.23
2023-05-23T15:06:47.151Z,47.10
2023-05-23T15:09:17.886Z,48.67
2023-05-23T15:11:46.999Z,51.13
2023-05-23T15:14:14.883Z,52.60
2023-05-23T15:16:44.417Z,49.83
2023-05-23T15:19:12.939Z,52.20
2023-05-23T15:21:49.268Z,45.80
2023-05-23T15:24:20.195Z,46.60
2023-05-23T15:26:48.807Z,47.47
2023-05-23T15:29:18.095Z,47.13
2023-05-23T15:31:46.273Z,46.23
2023-05-23T15:34:14.253Z,46.47
2023-05-23T15:36:42.273Z,45.83
2023-05-23T15:39:11.375Z,53.00
2023-05-23T15:41:41.049Z,47.50
2023-05-23T15:44:09.112Z,60.77
2023-05-23T15:46:37.227Z,45.57
2023-05-23T15:49:17.081Z,44.43
2023-05-23T15:51:53.247Z,44.53
2023-05-23T15:54:21.496Z,44.80
2023-05-23T15:56:50.880Z,44.43
2023-05-23T15:59:18.821Z,44.43
2023-05-23T16:01:46.872Z,44.37
2023-05-23T16:04:14.856Z,44.30
2023-05-23T16:06:42.865Z,44.50
2023-05-23T16:09:10.998Z,44.07
2023-05-23T16:11:38.959Z,44.83
2023-05-23T16:14:08.765Z,44.50
2023-05-23T16:16:36.868Z,44.57
2023-05-23T16:19:04.857Z,43.50
2023-05-23T16:21:33.251Z,44.70
2023-05-23T16:24:01.212Z,45.33
2023-05-23T16:26:29.290Z,46.17
2023-05-23T16:28:57.209Z,47.27
2023-05-23T16:31:29.219Z,47.50
2023-05-23T16:33:58.513Z,48.90
2023-05-23T16:36:26.803Z,57.80
2023-05-23T16:38:55.687Z,48.57
2023-05-23T16:41:23.868Z,47.60
2023-05-23T16:43:52.098Z,67.13
2023-05-23T16:46:22.177Z,57.13
2023-05-23T16:48:51.619Z,48.40
2023-05-23T16:51:19.639Z,46.90
2023-05-23T16:53:47.627Z,60.53
2023-05-23T16:56:15.775Z,94.30
2023-05-23T16:58:43.749Z,58.17
2023-05-23T17:01:11.694Z,45.77
2023-05-23T17:03:41.318Z,45.60
2023-05-23T17:06:10.877Z,46.23
2023-05-23T17:08:39.260Z,46.03
2023-05-23T17:11:07.153Z,45.93
2023-05-23T17:13:35.711Z,45.30
2023-05-23T17:16:03.966Z,46.00
2023-05-23T17:18:31.990Z,45.67
2023-05-23T17:21:00.367Z,47.43
2023-05-23T17:23:29.644Z,71.40
2023-05-23T17:25:57.570Z,47.17
2023-05-23T17:28:25.549Z,47.20
2023-05-23T17:30:53.552Z,46.93
2023-05-23T17:33:21.926Z,47.40
2023-05-23T17:35:50.033Z,47.40
2023-05-23T17:38:17.968Z,47.10
2023-05-23T17:40:47.449Z,45.83
2023-05-23T17:43:15.440Z,46.73
2023-05-23T17:45:43.366Z,50.73
2023-05-23T17:48:11.518Z,58.50
2023-05-23T17:50:39.785Z,48.20
2023-05-23T17:53:07.925Z,49.23
2023-05-23T17:55:36.010Z,49.63
2023-05-23T17:58:05.329Z,48.60
2023-05-23T18:00:33.538Z,47.03
2023-05-23T18:03:02.036Z,46.53
2023-05-23T18:05:30.065Z,48.07
2023-05-23T18:07:58.051Z,45.73
2023-05-23T18:10:25.958Z,44.83
2023-05-23T18:12:53.896Z,47.20
2023-05-23T18:15:25.523Z,46.33
2023-05-23T18:17:55.417Z,63.10
2023-05-23T18:20:23.427Z,47.83
2023-05-23T18:22:53.574Z,44.60
2023-05-23T18:25:27.175Z,44.50
2023-05-23T18:27:56.095Z,43.87
2023-05-23T18:30:26.058Z,43.47
2023-05-23T18:32:54.162Z,43.63
2023-05-23T18:35:22.778Z,43.23
2023-05-23T18:37:50.885Z,43.47
2023-05-23T18:40:19.326Z,43.33
2023-05-23T18:42:48.399Z,43.30
2023-05-23T18:45:16.428Z,43.10
2023-05-23T18:47:45.782Z,42.83
2023-05-23T18:50:14.256Z,43.33
2023-05-23T18:52:42.889Z,42.93
2023-05-23T18:55:11.663Z,42.57
2023-05-23T18:57:39.590Z,43.07
2023-05-23T19:00:08.992Z,42.57
2023-05-23T19:02:36.971Z,42.73
2023-05-23T19:05:07.410Z,43.20
2023-05-23T19:07:35.360Z,42.80
2023-05-23T19:10:03.347Z,43.03
2023-05-23T19:12:31.286Z,42.37
2023-05-23T19:14:59.598Z,42.90
2023-05-23T19:17:27.569Z,43.00
2023-05-23T19:19:56.074Z,43.33
2023-05-23T19:22:27.763Z,42.30
2023-05-23T19:24:57.489Z,42.77
2023-05-23T19:27:25.465Z,42.93
2023-05-23T19:29:53.400Z,42.47
2023-05-23T19:32:21.380Z,42.70
2023-05-23T19:34:49.408Z,42.37
2023-05-23T19:37:17.397Z,42.90
2023-05-23T19:39:46.693Z,42.57
2023-05-23T19:42:14.644Z,42.40
2023-05-23T19:44:42.833Z,42.50
2023-05-23T19:47:11.386Z,41.90
2023-05-23T19:49:39.314Z,41.30
2023-05-23T19:52:07.271Z,41.03
2023-05-23T19:54:35.266Z,41.63
2023-05-23T19:57:05.299Z,42.20
2023-05-23T19:59:33.551Z,41.03
2023-05-23T20:02:01.557Z,41.77
2023-05-23T20:04:29.493Z,40.57
2023-05-23T20:06:57.565Z,41.07
2023-05-23T20:09:25.521Z,40.73
2023-05-23T20:11:53.426Z,41.20
2023-05-23T20:14:22.704Z,41.43
2023-05-23T20:16:50.700Z,40.80
2023-05-23T20:19:18.697Z,41.63
2023-05-23T20:21:46.667Z,41.43
2023-05-23T20:24:14.906Z,40.97
2023-05-23T20:26:42.870Z,40.60
2023-05-23T20:29:10.935Z,41.33
2023-05-23T20:31:40.291Z,41.00
2023-05-23T20:34:08.354Z,40.90
2023-05-23T20:36:37.060Z,41.23
2023-05-23T20:39:05.449Z,41.07
2023-05-23T20:41:33.379Z,40.93
2023-05-23T20:44:01.504Z,41.03
2023-05-23T20:46:29.537Z,41.03
2023-05-23T20:48:59.302Z,40.87
2023-05-23T20:51:27.498Z,40.90
2023-05-23T20:53:55.441Z,40.37
2023-05-23T20:56:24.516Z,40.73
2023-05-23T20:58:52.538Z,40.57
2023-05-23T21:01:22.758Z,41.17
2023-05-23T21:03:51.112Z,40.93
2023-05-23T21:06:20.417Z,41.37
2023-05-23T21:08:48.390Z,41.33
2023-05-23T21:11:16.315Z,41.77
2023-05-23T21:13:44.640Z,41.07
2023-05-23T21:16:14.547Z,41.40
2023-05-23T21:18:42.759Z,41.87
2023-05-23T21:21:10.849Z,41.80
2023-05-23T21:23:40.182Z,41.13
2023-05-23T21:26:08.193Z,41.10
2023-05-23T21:28:37.200Z,40.80
2023-05-23T21:31:06.427Z,41.23
2023-05-23T21:33:34.457Z,41.30
2023-05-23T21:36:02.428Z,41.43
2023-05-23T21:38:30.811Z,41.37
2023-05-23T21:41:00.123Z,41.43
2023-05-23T21:43:28.021Z,41.60
2023-05-23T21:45:55.935Z,41.80
2023-05-23T21:48:23.907Z,40.73
2023-05-23T21:50:51.883Z,41.23
2023-05-23T21:53:19.804Z,41.37
2023-05-23T21:55:47.685Z,40.47
2023-05-23T21:58:17.048Z,45.00
2023-05-23T22:00:45.617Z,41.43
2023-05-23T22:03:13.630Z,41.30
2023-05-23T22:05:41.623Z,40.77
2023-05-23T22:08:09.528Z,45.70
2023-05-23T22:10:37.742Z,42.00
2023-05-23T22:13:05.656Z,43.63
2023-05-23T22:15:36.698Z,41.43
2023-05-23T22:18:05.036Z,42.17
2023-05-23T22:20:34.189Z,39.80
2023-05-23T22:23:03.050Z,40.73
2023-05-23T22:25:32.534Z,39.73
2023-05-23T22:28:01.399Z,41.07
2023-05-23T22:30:29.530Z,40.03
2023-05-23T22:33:01.622Z,39.20
2023-05-23T22:35:29.989Z,39.40
2023-05-23T22:37:57.903Z,40.47
2023-05-23T22:40:25.821Z,39.40
2023-05-23T22:42:53.709Z,40.07
2023-05-23T22:45:21.820Z,40.00
2023-05-23T22:47:50.573Z,39.90
2023-05-23T22:50:19.971Z,39.90
2023-05-23T22:52:48.414Z,40.77
2023-05-23T22:55:16.399Z,40.10
2023-05-23T22:57:44.303Z,41.40
2023-05-23T23:00:13.560Z,40.07
2023-05-23T23:02:41.520Z,39.90
2023-05-23T23:05:12.062Z,40.50
2023-05-23T23:07:41.417Z,41.47
2023-05-23T23:10:10.866Z,40.37
2023-05-23T23:12:38.797Z,40.83
2023-05-23T23:15:07.490Z,40.00
2023-05-23T23:17:36.051Z,42.33
2023-05-23T23:20:07.825Z,41.60
2023-05-23T23:22:36.359Z,42.33
2023-05-23T23:25:09.652Z,41.87
2023-05-23T23:27:37.657Z,41.10
2023-05-23T23:30:06.591Z,39.67
2023-05-23T23:32:35.150Z,40.43
2023-05-23T23:35:03.268Z,40.37
2023-05-23T23:37:31.353Z,40.53
2023-05-23T23:39:59.281Z,41.30
2023-05-23T23:42:28.577Z,40.43
2023-05-23T23:44:56.491Z,39.33
2023-05-23T23:47:24.488Z,42.07
2023-05-23T23:49:52.410Z,40.60
2023-05-23T23:52:20.398Z,41.37
2023-05-23T23:54:48.325Z,41.10
2023-05-23T23:57:16.471Z,41.67
2023-05-23T23:59:45.764Z,40.13
